createdAt,value
2018-06-28T00:00:23.304Z,15.07
2018-06-28T00:02:52.436Z,14.95
2018-06-28T00:05:23.090Z,14.93
2018-06-28T00:07:52.366Z,14.91
2018-06-28T00:10:21.669Z,14.87
2018-06-28T00:12:50.797Z,14.81
2018-06-28T00:15:21.174Z,14.80
2018-06-28T00:17:51.006Z,14.73
2018-06-28T00:20:20.218Z,14.76
2018-06-28T00:22:49.621Z,14.71
2018-06-28T00:25:20.822Z,14.59
2018-06-28T00:27:50.021Z,14.59
2018-06-28T00:30:20.081Z,14.55
2018-06-28T00:32:49.236Z,14.54
2018-06-28T00:35:18.635Z,14.59
2018-06-28T00:37:47.801Z,14.53
2018-06-28T00:40:17.800Z,14.55
2018-06-28T00:42:47.175Z,14.58
2018-06-28T00:45:17.690Z,14.61
2018-06-28T00:47:47.037Z,14.60
2018-06-28T00:50:16.973Z,14.52
2018-06-28T00:52:47.892Z,14.52
2018-06-28T00:55:19.231Z,14.46
2018-06-28T00:57:50.358Z,14.38
2018-06-28T01:00:20.549Z,14.29
2018-06-28T01:02:50.902Z,14.25
2018-06-28T01:05:21.875Z,14.17
2018-06-28T01:07:51.461Z,14.10
2018-06-28T01:10:20.666Z,14.11
2018-06-28T01:12:49.868Z,14.08
2018-06-28T01:15:18.981Z,14.06
2018-06-28T01:17:50.232Z,14.10
2018-06-28T01:20:19.614Z,14.13
2018-06-28T01:22:48.825Z,14.14
2018-06-28T01:25:20.363Z,14.11
2018-06-28T01:27:49.798Z,14.12
2018-06-28T01:30:19.507Z,14.10
2018-06-28T01:32:49.737Z,14.14
2018-06-28T01:35:18.985Z,14.11
2018-06-28T01:37:48.200Z,14.11
2018-06-28T01:40:17.594Z,14.09
2018-06-28T01:43:03.669Z,14.14
2018-06-28T01:45:37.308Z,14.06
2018-06-28T01:48:07.737Z,13.98
2018-06-28T01:50:37.233Z,13.94
2018-06-28T01:53:06.731Z,13.94
2018-06-28T01:55:36.429Z,13.93
2018-06-28T01:58:06.448Z,13.89
2018-06-28T02:00:35.673Z,13.86
2018-06-28T02:03:04.828Z,13.81
2018-06-28T02:05:34.173Z,13.73
2018-06-28T02:08:04.854Z,13.73
2018-06-28T02:10:34.001Z,13.70
2018-06-28T02:13:03.453Z,13.69
2018-06-28T02:15:33.021Z,13.64
2018-06-28T02:18:02.182Z,13.57
2018-06-28T02:20:31.432Z,13.53
2018-06-28T02:23:00.817Z,13.49
2018-06-28T02:25:31.800Z,13.48
2018-06-28T02:28:01.159Z,13.40
2018-06-28T02:30:30.876Z,13.29
2018-06-28T02:33:00.064Z,13.29
2018-06-28T02:35:29.369Z,13.33
2018-06-28T02:37:58.613Z,13.24
2018-06-28T02:40:27.820Z,13.19
2018-06-28T02:42:57.157Z,13.16
2018-06-28T02:45:26.333Z,13.11
2018-06-28T02:47:55.604Z,13.11
2018-06-28T02:50:25.109Z,13.08
2018-06-28T02:52:54.236Z,13.05
2018-06-28T02:55:25.265Z,13.03
2018-06-28T02:57:54.657Z,12.98
2018-06-28T03:00:23.777Z,12.97
2018-06-28T03:02:53.564Z,12.94
2018-06-28T03:05:23.452Z,12.90
2018-06-28T03:07:52.726Z,12.88
2018-06-28T03:10:21.801Z,12.84
2018-06-28T03:12:51.547Z,12.84
2018-06-28T03:15:20.725Z,12.89
2018-06-28T03:17:49.921Z,12.90
2018-06-28T03:20:19.387Z,12.91
2018-06-28T03:22:48.492Z,12.93
2018-06-28T03:25:17.605Z,12.94
2018-06-28T03:27:47.500Z,12.99
2018-06-28T03:30:16.741Z,13.01
2018-06-28T03:32:45.901Z,13.03
2018-06-28T03:35:15.949Z,13.01
2018-06-28T03:37:45.140Z,13.00
2018-06-28T03:40:14.215Z,12.97
2018-06-28T03:42:43.460Z,12.95
2018-06-28T03:45:12.638Z,12.95
2018-06-28T03:47:42.350Z,12.90
2018-06-28T03:50:11.529Z,12.86
2018-06-28T03:52:40.909Z,12.88
2018-06-28T03:55:11.785Z,12.88
2018-06-28T03:57:41.014Z,12.91
2018-06-28T04:00:10.169Z,12.92
2018-06-28T04:02:41.005Z,12.74
2018-06-28T04:05:10.182Z,12.81
2018-06-28T04:07:39.417Z,12.84
2018-06-28T04:10:08.806Z,12.92
2018-06-28T04:12:37.948Z,12.96
2018-06-28T04:15:08.352Z,13.01
2018-06-28T04:17:37.553Z,13.13
2018-06-28T04:20:07.421Z,13.17
2018-06-28T04:22:36.557Z,13.28
2018-06-28T04:25:07.165Z,13.42
2018-06-28T04:27:36.397Z,13.56
2018-06-28T04:30:06.514Z,13.68
2018-06-28T04:32:35.681Z,13.80
2018-06-28T04:35:06.733Z,13.88
2018-06-28T04:37:35.902Z,14.04
2018-06-28T04:40:05.101Z,14.15
2018-06-28T04:42:34.192Z,14.22
2018-06-28T04:45:05.029Z,14.27
2018-06-28T04:47:34.381Z,14.42
2018-06-28T04:50:05.167Z,14.51
2018-06-28T04:52:36.943Z,14.59
2018-06-28T04:55:06.073Z,14.71
2018-06-28T04:57:39.256Z,14.77
2018-06-28T05:01:37.933Z,14.84
2018-06-28T05:04:07.573Z,14.91
2018-06-28T05:06:37.269Z,14.99
2018-06-28T05:09:08.629Z,15.13
2018-06-28T05:11:37.888Z,15.25
2018-06-28T05:14:07.510Z,15.48
2018-06-28T05:16:37.561Z,15.68
2018-06-28T05:19:07.253Z,15.90
2018-06-28T05:21:36.989Z,16.06
2018-06-28T05:24:06.463Z,16.30
2018-06-28T05:26:35.585Z,16.36
2018-06-28T05:29:04.840Z,16.25
2018-06-28T05:31:34.149Z,16.35
2018-06-28T05:34:03.253Z,16.30
2018-06-28T05:36:32.451Z,16.43
2018-06-28T05:39:01.881Z,16.72
2018-06-28T05:41:31.226Z,16.84
2018-06-28T05:44:00.473Z,17.10
2018-06-28T05:46:31.098Z,17.26
2018-06-28T05:49:00.254Z,17.14
2018-06-28T05:51:29.376Z,17.18
2018-06-28T05:53:58.759Z,17.22
2018-06-28T05:56:28.108Z,17.18
2018-06-28T05:58:57.284Z,17.42
2018-06-28T06:01:27.350Z,17.36
2018-06-28T06:03:56.778Z,17.39
2018-06-28T06:06:26.229Z,17.60
2018-06-28T06:08:55.405Z,17.77
2018-06-28T06:11:24.501Z,17.92
2018-06-28T06:13:53.737Z,17.82
2018-06-28T06:16:22.940Z,18.04
2018-06-28T06:18:52.033Z,18.29
2018-06-28T06:21:23.460Z,18.50
2018-06-28T06:23:55.021Z,18.26
2018-06-28T06:26:25.449Z,18.37
2018-06-28T06:28:54.700Z,19.00
2018-06-28T06:31:24.015Z,19.56
2018-06-28T06:33:53.149Z,19.81
2018-06-28T06:36:25.017Z,19.86
2018-06-28T06:38:54.774Z,19.85
2018-06-28T06:41:26.300Z,19.83
2018-06-28T06:43:57.315Z,19.72
2018-06-28T06:46:29.237Z,19.53
2018-06-28T06:49:08.282Z,19.45
2018-06-28T06:51:38.182Z,19.64
2018-06-28T06:54:07.369Z,20.02
2018-06-28T06:56:37.293Z,19.84
2018-06-28T06:59:10.089Z,19.92
2018-06-28T07:01:40.974Z,20.31
2018-06-28T07:04:16.592Z,20.61
2018-06-28T07:06:48.937Z,20.37
2018-06-28T07:09:18.334Z,20.58
2018-06-28T07:11:56.796Z,20.79
2018-06-28T07:14:25.960Z,21.17
2018-06-28T07:16:55.268Z,21.39
2018-06-28T07:19:25.327Z,21.26
2018-06-28T07:21:54.581Z,21.27
2018-06-28T07:24:28.017Z,21.43
2018-06-28T07:26:58.517Z,21.55
2018-06-28T07:29:27.994Z,22.37
2018-06-28T07:31:57.238Z,22.30
2018-06-28T07:34:27.265Z,22.14
2018-06-28T07:36:58.612Z,22.19
2018-06-28T07:39:28.118Z,22.42
2018-06-28T07:41:57.540Z,22.87
2018-06-28T07:44:26.746Z,22.98
2018-06-28T07:46:56.255Z,22.95
2018-06-28T07:49:26.746Z,23.43
2018-06-28T07:51:56.782Z,23.90
2018-06-28T07:54:28.286Z,24.61
2018-06-28T07:56:57.506Z,25.98
2018-06-28T07:59:26.719Z,26.60
2018-06-28T08:01:57.725Z,26.10
2018-06-28T08:04:30.252Z,28.06
2018-06-28T08:06:59.430Z,26.25
2018-06-28T08:09:30.490Z,28.94
2018-06-28T08:12:01.591Z,25.89
2018-06-28T08:14:33.577Z,25.73
2018-06-28T08:17:02.765Z,26.51
2018-06-28T08:19:32.087Z,26.97
2018-06-28T08:22:01.540Z,28.79
2018-06-28T08:31:16.297Z,27.66
2018-06-28T08:33:48.270Z,27.56
2018-06-28T08:36:17.658Z,29.70
2018-06-28T08:38:46.853Z,30.46
2018-06-28T08:41:16.832Z,28.24
2018-06-28T08:43:47.474Z,27.94
2018-06-28T08:46:16.699Z,27.47
2018-06-28T08:48:46.358Z,26.27
2018-06-28T08:51:16.574Z,26.65
2018-06-28T08:53:45.787Z,27.47
2018-06-28T08:56:15.905Z,27.42
2018-06-28T08:58:45.081Z,28.91
2018-06-28T09:01:15.266Z,29.67
2018-06-28T09:03:44.522Z,29.76
2018-06-28T09:06:13.691Z,27.01
2018-06-28T09:08:42.868Z,27.92
2018-06-28T09:11:12.060Z,26.19
2018-06-28T09:13:41.698Z,27.40
2018-06-28T09:16:11.229Z,27.15
2018-06-28T09:18:40.365Z,26.86
2018-06-28T09:21:10.195Z,27.40
2018-06-28T09:23:39.770Z,27.30
2018-06-28T09:26:09.037Z,26.88
2018-06-28T09:28:38.164Z,27.74
2018-06-28T09:31:07.828Z,26.83
2018-06-28T09:33:38.786Z,24.85
2018-06-28T09:36:08.222Z,25.40
2018-06-28T09:40:06.852Z,25.06
2018-06-28T09:42:37.310Z,25.46
2018-06-28T09:45:07.413Z,26.48
2018-06-28T09:47:36.637Z,27.71
2018-06-28T09:50:07.269Z,26.56
2018-06-28T09:52:36.412Z,28.10
2018-06-28T09:56:37.949Z,28.55
2018-06-28T09:59:07.800Z,28.94
2018-06-28T10:01:37.104Z,27.72
2018-06-28T10:04:08.643Z,26.71
2018-06-28T10:06:38.359Z,27.13
2018-06-28T10:09:09.985Z,27.20
2018-06-28T10:11:39.139Z,28.69
2018-06-28T10:14:08.593Z,29.73
2018-06-28T10:16:38.161Z,27.98
2018-06-28T10:19:11.158Z,27.63
2018-06-28T10:21:42.212Z,27.67
2018-06-28T10:24:13.090Z,28.56
2018-06-28T10:26:43.921Z,29.38
2018-06-28T10:29:13.606Z,27.91
2018-06-28T10:31:42.829Z,27.12
2018-06-28T10:34:12.756Z,28.32
2018-06-28T10:36:41.947Z,27.88
2018-06-28T10:39:12.464Z,28.97
2018-06-28T10:41:42.304Z,27.93
2018-06-28T10:44:11.485Z,28.54
2018-06-28T10:46:41.612Z,28.55
2018-06-28T10:49:10.953Z,28.88
2018-06-28T10:51:41.039Z,30.28
2018-06-28T10:54:10.581Z,31.85
2018-06-28T10:56:42.461Z,31.19
2018-06-28T10:59:13.298Z,29.60
2018-06-28T11:01:44.504Z,28.13
2018-06-28T11:04:15.273Z,28.08
2018-06-28T11:06:46.642Z,28.63
2018-06-28T11:09:15.910Z,28.84
2018-06-28T11:11:45.547Z,29.48
2018-06-28T11:14:16.005Z,29.18
2018-06-28T11:16:45.317Z,29.32
2018-06-28T11:19:14.617Z,31.29
2018-06-28T11:21:44.664Z,32.36
2018-06-28T11:24:14.896Z,32.21
2018-06-28T11:26:45.596Z,31.91
2018-06-28T11:29:15.825Z,31.59
2018-06-28T11:31:47.505Z,31.31
2018-06-28T11:34:16.641Z,30.09
2018-06-28T11:36:45.928Z,29.68
2018-06-28T11:39:15.868Z,29.48
2018-06-28T11:41:45.166Z,30.27
2018-06-28T11:44:14.474Z,31.48
2018-06-28T11:46:44.353Z,32.07
2018-06-28T11:49:14.212Z,34.10
2018-06-28T11:51:43.381Z,33.81
2018-06-28T11:54:13.784Z,33.91
2018-06-28T11:56:44.106Z,34.62
2018-06-28T11:59:14.801Z,33.07
2018-06-28T12:01:44.317Z,32.74
2018-06-28T12:04:14.422Z,31.73
2018-06-28T12:06:44.834Z,31.91
2018-06-28T12:09:14.432Z,31.00
2018-06-28T12:11:44.207Z,31.16
2018-06-28T12:14:13.900Z,31.51
2018-06-28T12:16:44.574Z,28.74
2018-06-28T12:19:14.524Z,28.49
2018-06-28T12:21:43.708Z,29.53
2018-06-28T12:24:13.417Z,31.47
2018-06-28T12:26:42.681Z,31.71
2018-06-28T12:29:12.506Z,31.09
2018-06-28T12:31:41.769Z,30.00
2018-06-28T12:34:11.033Z,31.27
2018-06-28T12:36:41.829Z,31.49
2018-06-28T12:39:11.909Z,31.87
2018-06-28T12:41:41.021Z,31.71
2018-06-28T12:44:10.490Z,32.09
2018-06-28T12:48:09.552Z,30.52
2018-06-28T12:50:38.992Z,29.90
2018-06-28T12:53:12.776Z,30.59
2018-06-28T12:56:49.465Z,32.03
2018-06-28T12:59:20.106Z,33.52
2018-06-28T13:01:49.779Z,31.63
2018-06-28T13:04:19.034Z,30.84
2018-06-28T13:06:48.403Z,29.50
2018-06-28T13:09:18.342Z,28.86
2018-06-28T13:11:49.052Z,28.73
2018-06-28T13:14:18.430Z,29.88
2018-06-28T13:16:47.789Z,31.49
2018-06-28T13:19:18.410Z,30.63
2018-06-28T13:21:47.625Z,30.92
2018-06-28T13:24:17.605Z,31.10
2018-06-28T13:26:46.921Z,30.21
2018-06-28T13:29:18.186Z,29.88
2018-06-28T13:31:47.801Z,29.78
2018-06-28T13:34:21.224Z,29.50
2018-06-28T13:36:51.909Z,28.61
2018-06-28T13:39:22.545Z,28.06
2018-06-28T13:41:56.633Z,27.82
2018-06-28T13:44:26.580Z,26.97
2018-06-28T13:46:56.390Z,26.31
2018-06-28T13:49:29.624Z,26.19
2018-06-28T13:51:59.391Z,26.48
2018-06-28T13:54:29.251Z,26.60
2018-06-28T13:56:58.579Z,27.04
2018-06-28T13:59:28.871Z,27.16
2018-06-28T14:01:58.784Z,26.74
2018-06-28T14:04:28.635Z,26.66
2018-06-28T14:06:58.718Z,27.16
2018-06-28T14:09:27.983Z,27.04
2018-06-28T14:11:57.333Z,27.07
2018-06-28T14:14:26.553Z,27.71
2018-06-28T14:16:56.295Z,27.91
2018-06-28T14:19:25.509Z,27.87
2018-06-28T14:21:55.497Z,28.25
2018-06-28T14:24:25.601Z,29.24
2018-06-28T14:26:56.773Z,28.68
2018-06-28T14:29:27.042Z,28.01
2018-06-28T14:31:56.916Z,27.70
2018-06-28T14:34:26.181Z,27.40
2018-06-28T14:36:55.450Z,26.77
2018-06-28T14:39:25.515Z,27.08
2018-06-28T14:41:54.716Z,26.78
2018-06-28T14:44:24.409Z,26.64
2018-06-28T14:46:53.929Z,26.48
2018-06-28T14:49:24.104Z,27.45
2018-06-28T14:51:53.326Z,28.27
2018-06-28T14:54:22.737Z,28.03
2018-06-28T14:56:52.200Z,27.75
2018-06-28T14:59:21.344Z,27.73
2018-06-28T15:01:50.567Z,28.35
2018-06-28T15:04:21.285Z,27.31
2018-06-28T15:06:50.713Z,27.37
2018-06-28T15:09:19.865Z,28.35
2018-06-28T15:11:49.649Z,28.55
2018-06-28T15:14:19.462Z,28.37
2018-06-28T15:16:48.824Z,28.61
2018-06-28T15:19:18.325Z,29.13
2018-06-28T15:21:48.408Z,29.76
2018-06-28T15:24:18.537Z,30.31
2018-06-28T15:26:48.165Z,30.73
2018-06-28T15:29:17.380Z,30.76
2018-06-28T15:31:49.241Z,29.51
2018-06-28T15:35:47.933Z,27.84
2018-06-28T15:38:17.381Z,28.61
2018-06-28T15:40:46.506Z,28.70
2018-06-28T15:43:15.693Z,27.60
2018-06-28T15:45:46.707Z,27.45
2018-06-28T15:48:15.824Z,27.32
2018-06-28T15:50:45.995Z,26.90
2018-06-28T15:53:15.454Z,26.80
2018-06-28T15:55:45.353Z,26.74
2018-06-28T15:58:14.811Z,26.57
2018-06-28T16:00:45.952Z,26.11
2018-06-28T16:03:16.944Z,26.13
2018-06-28T16:05:46.605Z,26.48
2018-06-28T16:08:16.260Z,26.52
2018-06-28T16:10:45.374Z,26.17
2018-06-28T16:13:15.636Z,26.03
2018-06-28T16:15:44.793Z,26.15
2018-06-28T16:18:14.044Z,26.10
2018-06-28T16:20:43.216Z,26.54
2018-06-28T16:23:13.461Z,26.65
2018-06-28T16:25:44.132Z,26.54
2018-06-28T16:28:13.362Z,26.32
2018-06-28T16:30:44.092Z,26.24
2018-06-28T16:33:15.071Z,26.20
2018-06-28T16:35:44.228Z,26.42
2018-06-28T16:38:14.454Z,26.44
2018-06-28T16:40:43.928Z,26.45
2018-06-28T16:43:13.135Z,26.56
2018-06-28T16:45:42.748Z,26.70
2018-06-28T16:48:11.944Z,26.61
2018-06-28T16:50:41.188Z,26.25
2018-06-28T16:53:11.182Z,26.51
2018-06-28T16:55:40.675Z,26.71
2018-06-28T16:58:11.417Z,26.88
2018-06-28T17:00:41.981Z,26.82
2018-06-28T17:03:16.165Z,26.57
2018-06-28T17:05:46.496Z,26.24
2018-06-28T17:08:15.892Z,26.02
2018-06-28T17:10:45.649Z,26.00
2018-06-28T17:13:14.830Z,25.84
2018-06-28T17:15:44.410Z,25.84
2018-06-28T17:18:13.553Z,25.95
2018-06-28T17:20:42.895Z,26.27
2018-06-28T17:23:12.090Z,26.72
2018-06-28T17:25:41.233Z,26.51
2018-06-28T17:28:10.384Z,26.13
2018-06-28T17:30:40.141Z,26.35
2018-06-28T17:33:10.473Z,26.17
2018-06-28T17:35:39.605Z,26.28
2018-06-28T17:38:08.769Z,26.31
2018-06-28T17:40:37.980Z,26.08
2018-06-28T17:43:07.209Z,26.15
2018-06-28T17:45:36.657Z,26.19
2018-06-28T17:48:06.020Z,25.98
2018-06-28T17:50:35.134Z,25.91
2018-06-28T17:53:04.516Z,25.82
2018-06-28T17:55:33.660Z,25.69
2018-06-28T17:58:03.321Z,25.65
2018-06-28T18:00:32.513Z,25.79
2018-06-28T18:03:01.853Z,25.82
2018-06-28T18:05:31.744Z,25.98
2018-06-28T18:08:00.972Z,26.01
2018-06-28T18:10:32.613Z,26.02
2018-06-28T18:13:02.649Z,25.98
2018-06-28T18:15:32.440Z,26.02
2018-06-28T18:18:01.565Z,25.91
2018-06-28T18:20:31.653Z,25.71
2018-06-28T18:23:00.851Z,25.55
2018-06-28T18:25:30.593Z,25.63
2018-06-28T18:27:59.789Z,25.52
2018-06-28T18:30:30.425Z,25.34
2018-06-28T18:32:59.593Z,25.43
2018-06-28T18:35:28.822Z,25.49
2018-06-28T18:37:58.091Z,25.49
2018-06-28T18:40:27.221Z,25.74
2018-06-28T18:42:56.414Z,25.86
2018-06-28T18:45:25.885Z,25.72
2018-06-28T18:47:55.900Z,25.50
2018-06-28T18:50:25.108Z,25.58
2018-06-28T18:52:54.329Z,25.60
2018-06-28T18:55:23.546Z,25.70
2018-06-28T18:57:52.972Z,25.56
2018-06-28T19:00:22.941Z,25.42
2018-06-28T19:02:52.118Z,25.47
2018-06-28T19:05:21.854Z,25.57
2018-06-28T19:07:51.220Z,25.58
2018-06-28T19:10:25.628Z,25.41
2018-06-28T19:12:54.950Z,25.35
2018-06-28T19:15:29.914Z,25.28
2018-06-28T19:17:59.424Z,25.18
2018-06-28T19:20:28.655Z,24.96
2018-06-28T19:23:04.981Z,24.83
2018-06-28T19:25:35.028Z,24.92
2018-06-28T19:28:05.798Z,24.92
2018-06-28T19:30:40.198Z,24.80
2018-06-28T19:33:10.528Z,24.79
2018-06-28T19:35:39.991Z,24.70
2018-06-28T19:38:09.157Z,24.79
2018-06-28T19:40:44.863Z,24.53
2018-06-28T19:43:13.976Z,24.34
2018-06-28T19:45:43.134Z,24.23
2018-06-28T19:48:13.222Z,24.08
2018-06-28T19:50:47.493Z,24.04
2018-06-28T19:53:18.036Z,24.08
2018-06-28T19:55:47.309Z,23.87
2018-06-28T19:58:17.185Z,23.91
2018-06-28T20:00:52.344Z,23.60
2018-06-28T20:03:28.152Z,23.47
2018-06-28T20:05:57.577Z,23.33
2018-06-28T20:08:26.648Z,23.36
2018-06-28T20:10:56.011Z,23.27
2018-06-28T20:13:30.474Z,23.41
2018-06-28T20:16:04.921Z,23.27
2018-06-28T20:18:39.436Z,23.22
2018-06-28T20:21:09.103Z,23.16
2018-06-28T20:23:38.593Z,23.20
2018-06-28T20:26:13.171Z,23.09
2018-06-28T20:28:47.927Z,22.99
2018-06-28T20:31:22.329Z,22.96
2018-06-28T20:33:56.787Z,22.85
2018-06-28T20:36:26.461Z,22.81
2018-06-28T20:38:55.661Z,22.73
2018-06-28T20:41:24.824Z,22.62
2018-06-28T20:43:55.185Z,22.76
2018-06-28T20:46:24.365Z,22.89
2018-06-28T20:48:53.473Z,22.93
2018-06-28T20:51:22.644Z,23.01
2018-06-28T20:53:53.848Z,23.04
2018-06-28T20:56:23.394Z,23.05
2018-06-28T20:58:52.596Z,22.72
2018-06-28T21:01:21.797Z,22.90
2018-06-28T21:03:51.653Z,22.75
2018-06-28T21:06:21.136Z,22.77
2018-06-28T21:08:51.336Z,22.83
2018-06-28T21:11:21.432Z,22.71
2018-06-28T21:13:50.583Z,22.62
2018-06-28T21:16:20.433Z,22.38
2018-06-28T21:18:49.659Z,22.39
2018-06-28T21:21:19.080Z,22.31
2018-06-28T21:23:48.217Z,22.19
2018-06-28T21:26:17.600Z,22.14
2018-06-28T21:28:46.837Z,22.33
2018-06-28T21:31:16.647Z,22.58
2018-06-28T21:33:45.796Z,22.40
2018-06-28T21:36:14.973Z,22.34
2018-06-28T21:38:44.973Z,22.51
2018-06-28T21:41:14.642Z,22.57
2018-06-28T21:43:43.845Z,22.57
2018-06-28T21:46:13.316Z,22.54
2018-06-28T21:48:42.505Z,22.38
2018-06-28T21:51:11.865Z,22.27
2018-06-28T21:53:41.349Z,22.19
2018-06-28T21:56:10.673Z,22.18
2018-06-28T21:58:39.856Z,22.24
2018-06-28T22:01:09.614Z,22.30
2018-06-28T22:03:38.769Z,22.26
2018-06-28T22:06:08.733Z,22.17
2018-06-28T22:08:38.204Z,22.08
2018-06-28T22:11:08.317Z,22.02
2018-06-28T22:13:37.700Z,21.99
2018-06-28T22:16:07.117Z,21.94
2018-06-28T22:18:36.413Z,21.95
2018-06-28T22:21:06.525Z,21.89
2018-06-28T22:23:36.532Z,21.81
2018-06-28T22:26:05.751Z,21.71
2018-06-28T22:28:36.436Z,21.71
2018-06-28T22:31:05.876Z,21.72
2018-06-28T22:33:35.001Z,21.77
2018-06-28T22:36:04.173Z,21.79
2018-06-28T22:38:33.537Z,21.81
2018-06-28T22:41:02.672Z,21.70
2018-06-28T22:43:31.982Z,21.68
2018-06-28T22:46:01.288Z,21.63
2018-06-28T22:48:30.492Z,21.64
2018-06-28T22:51:00.109Z,21.55
2018-06-28T22:53:29.593Z,21.53
2018-06-28T22:55:58.744Z,21.51
2018-06-28T22:58:27.830Z,21.43
2018-06-28T23:00:57.380Z,21.36
2018-06-28T23:03:27.873Z,21.37
2018-06-28T23:05:57.200Z,21.35
2018-06-28T23:08:26.549Z,21.46
2018-06-28T23:10:55.602Z,21.47
2018-06-28T23:13:24.912Z,21.41
2018-06-28T23:15:54.038Z,21.43
2018-06-28T23:18:23.117Z,21.36
2018-06-28T23:20:53.017Z,21.33
2018-06-28T23:23:22.700Z,21.33
2018-06-28T23:25:52.557Z,21.35
2018-06-28T23:28:21.652Z,21.38
2018-06-28T23:30:50.800Z,21.36
2018-06-28T23:33:20.449Z,21.31
2018-06-28T23:35:50.073Z,21.27
2018-06-28T23:38:19.831Z,21.18
2018-06-28T23:40:48.949Z,21.14
2018-06-28T23:43:18.084Z,21.13
2018-06-28T23:45:47.832Z,21.20
2018-06-28T23:48:17.109Z,21.15
2018-06-28T23:50:46.257Z,21.05
2018-06-28T23:53:15.645Z,20.96
2018-06-28T23:55:44.892Z,20.92
2018-06-28T23:58:13.993Z,20.80
